Terminal Aerodrome Forecast
Issued by NWS Wilmington, OH

Home | Current Version | Previous Version | Text Only | Print | Product List | Glossary On
Versions: 1 2 3 4 5 6 7 8 9 10 11 12 13 14 15 16 17 18 19 20 21 22 23 24 25 26
000
FTUS41 KILN 232300
TAFILN
TAF
KILN 232335Z 2400/2424 36008KT P6SM FEW020 OVC050
      TEMPO 2402/2404 2SM -SHRA BR SCT008 BKN015 OVC030
     FM240600 02009KT P6SM SCT040
     FM241400 02010KT P6SM BKN035
     FM242300 03006KT P6SM SKC=

USA.gov is the U.S. government's official web portal to all federal, state and local government web resources and services.